sensor_id;sensor_type;location;lat;lon;timestamp;temperature;humidity
48515;DHT22;34309;47.260;2.796;2023-03-01T00:01:29;22.40;10.40
48515;DHT22;34309;47.260;2.796;2023-03-01T00:04:03;22.40;10.30
48515;DHT22;34309;47.260;2.796;2023-03-01T00:06:37;22.30;10.30
48515;DHT22;34309;47.260;2.796;2023-03-01T00:09:11;22.30;10.60
48515;DHT22;34309;47.260;2.796;2023-03-01T00:11:46;22.30;10.40
48515;DHT22;34309;47.260;2.796;2023-03-01T00:14:21;22.40;10.50
48515;DHT22;34309;47.260;2.796;2023-03-01T00:16:55;22.40;10.50
48515;DHT22;34309;47.260;2.796;2023-03-01T00:19:29;22.30;10.40
48515;DHT22;34309;47.260;2.796;2023-03-01T00:22:05;22.30;10.40
48515;DHT22;34309;47.260;2.796;2023-03-01T00:24:39;22.20;10.60
48515;DHT22;34309;47.260;2.796;2023-03-01T00:27:13;22.30;10.60
48515;DHT22;34309;47.260;2.796;2023-03-01T00:29:46;22.30;10.60
48515;DHT22;34309;47.260;2.796;2023-03-01T00:32:20;22.30;10.30
48515;DHT22;34309;47.260;2.796;2023-03-01T00:34:53;22.30;10.50
48515;DHT22;34309;47.260;2.796;2023-03-01T00:37:29;22.30;10.50
48515;DHT22;34309;47.260;2.796;2023-03-01T00:40:03;22.40;10.60
48515;DHT22;34309;47.260;2.796;2023-03-01T00:42:38;22.40;10.40
48515;DHT22;34309;47.260;2.796;2023-03-01T00:45:13;22.40;10.50
48515;DHT22;34309;47.260;2.796;2023-03-01T00:47:47;22.40;10.40
48515;DHT22;34309;47.260;2.796;2023-03-01T00:50:21;22.50;10.60
48515;DHT22;34309;47.260;2.796;2023-03-01T00:52:57;22.40;10.40
48515;DHT22;34309;47.260;2.796;2023-03-01T00:55:31;22.50;10.40
48515;DHT22;34309;47.260;2.796;2023-03-01T00:58:04;22.50;10.50
48515;DHT22;34309;47.260;2.796;2023-03-01T01:00:38;22.50;10.40
48515;DHT22;34309;47.260;2.796;2023-03-01T01:03:12;22.50;10.30
48515;DHT22;34309;47.260;2.796;2023-03-01T01:05:46;22.50;10.40
48515;DHT22;34309;47.260;2.796;2023-03-01T01:08:21;22.50;10.30
48515;DHT22;34309;47.260;2.796;2023-03-01T01:10:55;22.50;10.20
48515;DHT22;34309;47.260;2.796;2023-03-01T01:13:29;22.50;10.10
48515;DHT22;34309;47.260;2.796;2023-03-01T01:16:03;22.40;10.20
48515;DHT22;34309;47.260;2.796;2023-03-01T01:18:37;22.40;10.40
48515;DHT22;34309;47.260;2.796;2023-03-01T01:21:13;22.50;10.20
48515;DHT22;34309;47.260;2.796;2023-03-01T01:23:49;22.40;10.10
48515;DHT22;34309;47.260;2.796;2023-03-01T01:26:25;22.40;10.50
48515;DHT22;34309;47.260;2.796;2023-03-01T01:28:59;22.40;10.20
48515;DHT22;34309;47.260;2.796;2023-03-01T01:31:34;22.40;10.30
48515;DHT22;34309;47.260;2.796;2023-03-01T01:34:13;22.40;10.00
48515;DHT22;34309;47.260;2.796;2023-03-01T01:36:48;22.40;10.20
48515;DHT22;34309;47.260;2.796;2023-03-01T01:39:24;22.30;10.20
48515;DHT22;34309;47.260;2.796;2023-03-01T01:41:57;22.30;10.20
48515;DHT22;34309;47.260;2.796;2023-03-01T01:44:33;22.30;10.30
48515;DHT22;34309;47.260;2.796;2023-03-01T01:47:10;22.40;10.30
48515;DHT22;34309;47.260;2.796;2023-03-01T01:49:48;22.40;10.20
48515;DHT22;34309;47.260;2.796;2023-03-01T01:52:25;22.40;10.30
48515;DHT22;34309;47.260;2.796;2023-03-01T01:55:07;22.40;10.00
48515;DHT22;34309;47.260;2.796;2023-03-01T01:57:44;22.30;10.30
48515;DHT22;34309;47.260;2.796;2023-03-01T02:00:21;22.30;10.20
48515;DHT22;34309;47.260;2.796;2023-03-01T02:02:57;22.30;10.30
48515;DHT22;34309;47.260;2.796;2023-03-01T02:05:37;22.40;10.10
48515;DHT22;34309;47.260;2.796;2023-03-01T02:08:13;22.40;10.20
48515;DHT22;34309;47.260;2.796;2023-03-01T02:10:50;22.40;10.00
48515;DHT22;34309;47.260;2.796;2023-03-01T02:13:26;22.30;9.90
48515;DHT22;34309;47.260;2.796;2023-03-01T02:16:02;22.30;10.10
48515;DHT22;34309;47.260;2.796;2023-03-01T02:18:36;22.20;10.20
48515;DHT22;34309;47.260;2.796;2023-03-01T02:21:30;22.20;10.20
48515;DHT22;34309;47.260;2.796;2023-03-01T02:24:10;22.20;10.10
48515;DHT22;34309;47.260;2.796;2023-03-01T02:26:52;22.20;10.20
48515;DHT22;34309;47.260;2.796;2023-03-01T02:29:29;22.20;10.30
48515;DHT22;34309;47.260;2.796;2023-03-01T02:32:04;22.20;10.30
48515;DHT22;34309;47.260;2.796;2023-03-01T02:34:39;22.20;10.10
48515;DHT22;34309;47.260;2.796;2023-03-01T02:37:15;22.10;10.30
48515;DHT22;34309;47.260;2.796;2023-03-01T02:39:56;22.00;10.40
48515;DHT22;34309;47.260;2.796;2023-03-01T02:42:35;22.00;10.50
48515;DHT22;34309;47.260;2.796;2023-03-01T02:45:11;22.00;10.50
48515;DHT22;34309;47.260;2.796;2023-03-01T02:47:45;22.10;10.40
48515;DHT22;34309;47.260;2.796;2023-03-01T02:50:41;22.10;10.20
48515;DHT22;34309;47.260;2.796;2023-03-01T02:53:23;22.10;10.30
48515;DHT22;34309;47.260;2.796;2023-03-01T02:56:01;22.00;10.20
48515;DHT22;34309;47.260;2.796;2023-03-01T02:58:34;21.90;10.10
48515;DHT22;34309;47.260;2.796;2023-03-01T03:01:18;21.90;10.90
48515;DHT22;34309;47.260;2.796;2023-03-01T03:03:52;21.90;10.20
48515;DHT22;34309;47.260;2.796;2023-03-01T03:06:26;21.80;10.10
48515;DHT22;34309;47.260;2.796;2023-03-01T03:09:00;21.80;10.10
48515;DHT22;34309;47.260;2.796;2023-03-01T03:11:33;21.80;10.10
48515;DHT22;34309;47.260;2.796;2023-03-01T03:14:09;21.80;10.10
48515;DHT22;34309;47.260;2.796;2023-03-01T03:16:48;21.80;10.30
48515;DHT22;34309;47.260;2.796;2023-03-01T03:19:22;21.90;10.30
48515;DHT22;34309;47.260;2.796;2023-03-01T03:21:55;21.90;10.30
48515;DHT22;34309;47.260;2.796;2023-03-01T03:24:29;22.00;10.30
48515;DHT22;34309;47.260;2.796;2023-03-01T03:27:09;22.00;10.00
48515;DHT22;34309;47.260;2.796;2023-03-01T03:29:43;22.00;10.20
48515;DHT22;34309;47.260;2.796;2023-03-01T03:32:18;22.00;10.10
48515;DHT22;34309;47.260;2.796;2023-03-01T03:34:51;22.00;10.10
48515;DHT22;34309;47.260;2.796;2023-03-01T03:37:25;22.00;10.00
48515;DHT22;34309;47.260;2.796;2023-03-01T03:40:16;22.00;10.20
48515;DHT22;34309;47.260;2.796;2023-03-01T03:42:50;22.00;10.30
48515;DHT22;34309;47.260;2.796;2023-03-01T03:45:24;22.00;10.20
48515;DHT22;34309;47.260;2.796;2023-03-01T03:47:59;22.10;10.20
48515;DHT22;34309;47.260;2.796;2023-03-01T03:50:33;22.10;10.10
48515;DHT22;34309;47.260;2.796;2023-03-01T03:53:09;22.10;10.40
48515;DHT22;34309;47.260;2.796;2023-03-01T03:55:43;22.10;10.30
48515;DHT22;34309;47.260;2.796;2023-03-01T03:58:18;22.10;10.20
48515;DHT22;34309;47.260;2.796;2023-03-01T04:00:54;22.10;10.00
48515;DHT22;34309;47.260;2.796;2023-03-01T04:03:31;22.10;10.20
48515;DHT22;34309;47.260;2.796;2023-03-01T04:06:05;22.10;10.20
48515;DHT22;34309;47.260;2.796;2023-03-01T04:08:39;22.10;10.10
48515;DHT22;34309;47.260;2.796;2023-03-01T04:11:13;22.10;10.10
48515;DHT22;34309;47.260;2.796;2023-03-01T04:13:59;22.10;10.00
48515;DHT22;34309;47.260;2.796;2023-03-01T04:16:33;22.20;10.20
48515;DHT22;34309;47.260;2.796;2023-03-01T04:19:08;22.20;10.10
48515;DHT22;34309;47.260;2.796;2023-03-01T04:21:41;22.10;10.10
48515;DHT22;34309;47.260;2.796;2023-03-01T04:24:15;22.10;10.10
48515;DHT22;34309;47.260;2.796;2023-03-01T04:26:49;22.10;10.10
48515;DHT22;34309;47.260;2.796;2023-03-01T04:29:22;22.10;10.00
48515;DHT22;34309;47.260;2.796;2023-03-01T04:31:56;22.10;10.00
48515;DHT22;34309;47.260;2.796;2023-03-01T04:34:32;22.10;9.70
48515;DHT22;34309;47.260;2.796;2023-03-01T04:37:06;22.00;9.80
48515;DHT22;34309;47.260;2.796;2023-03-01T04:39:41;22.00;9.70
48515;DHT22;34309;47.260;2.796;2023-03-01T04:42:18;21.90;9.90
48515;DHT22;34309;47.260;2.796;2023-03-01T04:44:52;21.80;9.80
48515;DHT22;34309;47.260;2.796;2023-03-01T04:47:25;21.80;9.80
48515;DHT22;34309;47.260;2.796;2023-03-01T04:50:00;21.70;9.80
48515;DHT22;34309;47.260;2.796;2023-03-01T04:52:34;21.70;9.90
48515;DHT22;34309;47.260;2.796;2023-03-01T04:55:03;21.60;9.90
48515;DHT22;34309;47.260;2.796;2023-03-01T04:57:37;21.60;10.00
48515;DHT22;34309;47.260;2.796;2023-03-01T05:00:12;21.50;9.80
48515;DHT22;34309;47.260;2.796;2023-03-01T05:02:54;21.50;9.90
48515;DHT22;34309;47.260;2.796;2023-03-01T05:05:32;21.50;10.00
48515;DHT22;34309;47.260;2.796;2023-03-01T05:08:07;21.40;10.00
48515;DHT22;34309;47.260;2.796;2023-03-01T05:10:41;21.40;10.00
48515;DHT22;34309;47.260;2.796;2023-03-01T05:13:15;21.40;10.10
48515;DHT22;34309;47.260;2.796;2023-03-01T05:15:55;21.40;10.00
48515;DHT22;34309;47.260;2.796;2023-03-01T05:18:31;21.50;10.00
48515;DHT22;34309;47.260;2.796;2023-03-01T05:21:07;21.40;9.90
48515;DHT22;34309;47.260;2.796;2023-03-01T05:23:41;21.50;10.20
48515;DHT22;34309;47.260;2.796;2023-03-01T05:26:17;21.50;10.10
48515;DHT22;34309;47.260;2.796;2023-03-01T05:28:51;21.60;10.10
48515;DHT22;34309;47.260;2.796;2023-03-01T05:31:28;21.60;10.00
48515;DHT22;34309;47.260;2.796;2023-03-01T05:34:02;21.60;10.00
48515;DHT22;34309;47.260;2.796;2023-03-01T05:36:38;21.60;10.10
48515;DHT22;34309;47.260;2.796;2023-03-01T05:39:11;21.70;10.20
48515;DHT22;34309;47.260;2.796;2023-03-01T05:41:45;21.70;10.00
48515;DHT22;34309;47.260;2.796;2023-03-01T05:44:19;21.70;9.90
48515;DHT22;34309;47.260;2.796;2023-03-01T05:46:52;21.70;9.90
48515;DHT22;34309;47.260;2.796;2023-03-01T05:49:26;21.70;9.90
48515;DHT22;34309;47.260;2.796;2023-03-01T05:52:01;21.70;9.90
48515;DHT22;34309;47.260;2.796;2023-03-01T05:54:35;21.70;9.80
48515;DHT22;34309;47.260;2.796;2023-03-01T05:57:09;21.70;9.90
48515;DHT22;34309;47.260;2.796;2023-03-01T05:59:42;21.70;10.00
48515;DHT22;34309;47.260;2.796;2023-03-01T06:02:17;21.60;9.90
48515;DHT22;34309;47.260;2.796;2023-03-01T06:04:50;21.70;9.90
48515;DHT22;34309;47.260;2.796;2023-03-01T06:07:26;21.70;9.90
48515;DHT22;34309;47.260;2.796;2023-03-01T06:09:59;21.70;9.80
48515;DHT22;34309;47.260;2.796;2023-03-01T06:12:33;21.70;9.80
48515;DHT22;34309;47.260;2.796;2023-03-01T06:15:08;21.70;9.80
48515;DHT22;34309;47.260;2.796;2023-03-01T06:17:45;21.70;9.80
48515;DHT22;34309;47.260;2.796;2023-03-01T06:20:21;21.80;9.80
48515;DHT22;34309;47.260;2.796;2023-03-01T06:22:56;21.70;9.70
48515;DHT22;34309;47.260;2.796;2023-03-01T06:25:32;21.70;9.70
48515;DHT22;34309;47.260;2.796;2023-03-01T06:28:05;21.70;9.80
48515;DHT22;34309;47.260;2.796;2023-03-01T06:30:39;21.70;10.30
48515;DHT22;34309;47.260;2.796;2023-03-01T06:33:13;21.70;9.80
48515;DHT22;34309;47.260;2.796;2023-03-01T06:35:47;21.70;9.70
48515;DHT22;34309;47.260;2.796;2023-03-01T06:38:22;21.70;9.70
48515;DHT22;34309;47.260;2.796;2023-03-01T06:40:56;21.70;9.60
48515;DHT22;34309;47.260;2.796;2023-03-01T06:43:30;21.70;9.80
48515;DHT22;34309;47.260;2.796;2023-03-01T06:46:04;21.70;9.80
48515;DHT22;34309;47.260;2.796;2023-03-01T06:48:38;21.70;9.70
48515;DHT22;34309;47.260;2.796;2023-03-01T06:51:12;21.60;9.70
48515;DHT22;34309;47.260;2.796;2023-03-01T06:53:47;21.60;9.80
48515;DHT22;34309;47.260;2.796;2023-03-01T06:56:21;21.60;9.70
48515;DHT22;34309;47.260;2.796;2023-03-01T06:58:54;21.60;9.60
48515;DHT22;34309;47.260;2.796;2023-03-01T07:01:28;21.60;9.70
48515;DHT22;34309;47.260;2.796;2023-03-01T07:04:03;21.60;9.60
48515;DHT22;34309;47.260;2.796;2023-03-01T07:06:36;21.70;9.70
48515;DHT22;34309;47.260;2.796;2023-03-01T07:09:12;21.70;9.60
48515;DHT22;34309;47.260;2.796;2023-03-01T07:11:45;21.70;9.50
48515;DHT22;34309;47.260;2.796;2023-03-01T07:14:19;21.70;9.70
48515;DHT22;34309;47.260;2.796;2023-03-01T07:16:53;21.70;9.60
48515;DHT22;34309;47.260;2.796;2023-03-01T07:19:26;21.70;9.60
48515;DHT22;34309;47.260;2.796;2023-03-01T07:22:00;21.60;9.60
48515;DHT22;34309;47.260;2.796;2023-03-01T07:24:37;21.60;9.70
48515;DHT22;34309;47.260;2.796;2023-03-01T07:27:11;21.60;9.70
48515;DHT22;34309;47.260;2.796;2023-03-01T07:29:45;21.60;9.60
48515;DHT22;34309;47.260;2.796;2023-03-01T07:32:18;21.60;9.60
48515;DHT22;34309;47.260;2.796;2023-03-01T07:34:52;21.50;9.60
48515;DHT22;34309;47.260;2.796;2023-03-01T07:37:26;21.60;9.60
48515;DHT22;34309;47.260;2.796;2023-03-01T07:40:01;21.60;9.50
48515;DHT22;34309;47.260;2.796;2023-03-01T07:42:37;21.60;9.50
48515;DHT22;34309;47.260;2.796;2023-03-01T07:45:11;21.60;9.50
48515;DHT22;34309;47.260;2.796;2023-03-01T07:47:45;21.60;9.60
48515;DHT22;34309;47.260;2.796;2023-03-01T07:50:19;21.60;9.40
48515;DHT22;34309;47.260;2.796;2023-03-01T07:52:53;21.70;9.50
48515;DHT22;34309;47.260;2.796;2023-03-01T07:55:28;21.60;9.50
48515;DHT22;34309;47.260;2.796;2023-03-01T07:58:02;21.60;9.60
48515;DHT22;34309;47.260;2.796;2023-03-01T08:00:36;21.60;9.60
48515;DHT22;34309;47.260;2.796;2023-03-01T08:03:10;21.50;9.60
48515;DHT22;34309;47.260;2.796;2023-03-01T08:05:44;21.50;9.60
48515;DHT22;34309;47.260;2.796;2023-03-01T08:08:17;21.50;9.50
48515;DHT22;34309;47.260;2.796;2023-03-01T08:10:55;21.40;9.50
48515;DHT22;34309;47.260;2.796;2023-03-01T08:13:29;21.50;9.50
48515;DHT22;34309;47.260;2.796;2023-03-01T08:16:04;21.50;9.60
48515;DHT22;34309;47.260;2.796;2023-03-01T08:18:38;21.60;9.50
48515;DHT22;34309;47.260;2.796;2023-03-01T08:21:13;21.60;9.50
48515;DHT22;34309;47.260;2.796;2023-03-01T08:23:47;21.50;9.40
48515;DHT22;34309;47.260;2.796;2023-03-01T08:26:24;21.50;9.50
48515;DHT22;34309;47.260;2.796;2023-03-01T08:28:57;21.50;9.50
48515;DHT22;34309;47.260;2.796;2023-03-01T08:31:33;21.40;9.50
48515;DHT22;34309;47.260;2.796;2023-03-01T08:34:11;21.40;9.60
48515;DHT22;34309;47.260;2.796;2023-03-01T08:36:46;21.30;9.60
48515;DHT22;34309;47.260;2.796;2023-03-01T08:39:20;21.30;9.60
48515;DHT22;34309;47.260;2.796;2023-03-01T08:41:55;21.30;9.60
48515;DHT22;34309;47.260;2.796;2023-03-01T08:44:30;21.20;10.20
48515;DHT22;34309;47.260;2.796;2023-03-01T08:47:04;21.20;9.70
48515;DHT22;34309;47.260;2.796;2023-03-01T08:49:37;21.10;9.70
48515;DHT22;34309;47.260;2.796;2023-03-01T08:52:11;21.00;9.80
48515;DHT22;34309;47.260;2.796;2023-03-01T08:54:44;21.00;9.70
48515;DHT22;34309;47.260;2.796;2023-03-01T08:57:19;20.90;9.80
48515;DHT22;34309;47.260;2.796;2023-03-01T08:59:53;21.00;9.90
48515;DHT22;34309;47.260;2.796;2023-03-01T09:02:28;20.90;9.90
48515;DHT22;34309;47.260;2.796;2023-03-01T09:05:02;20.90;9.80
48515;DHT22;34309;47.260;2.796;2023-03-01T09:07:35;20.90;9.80
48515;DHT22;34309;47.260;2.796;2023-03-01T09:10:10;20.90;9.90
48515;DHT22;34309;47.260;2.796;2023-03-01T09:12:45;20.80;9.80
48515;DHT22;34309;47.260;2.796;2023-03-01T09:15:19;20.80;9.90
48515;DHT22;34309;47.260;2.796;2023-03-01T09:17:53;20.80;9.90
48515;DHT22;34309;47.260;2.796;2023-03-01T09:20:27;20.70;9.90
48515;DHT22;34309;47.260;2.796;2023-03-01T09:23:01;20.70;10.00
48515;DHT22;34309;47.260;2.796;2023-03-01T09:25:35;20.60;9.80
48515;DHT22;34309;47.260;2.796;2023-03-01T09:28:10;20.60;9.90
48515;DHT22;34309;47.260;2.796;2023-03-01T09:30:44;20.50;10.00
48515;DHT22;34309;47.260;2.796;2023-03-01T09:33:18;20.40;10.10
48515;DHT22;34309;47.260;2.796;2023-03-01T09:35:56;20.40;10.10
48515;DHT22;34309;47.260;2.796;2023-03-01T09:38:30;20.40;10.20
48515;DHT22;34309;47.260;2.796;2023-03-01T09:41:10;20.40;10.30
48515;DHT22;34309;47.260;2.796;2023-03-01T09:43:48;20.30;10.40
48515;DHT22;34309;47.260;2.796;2023-03-01T09:46:26;20.30;10.40
48515;DHT22;34309;47.260;2.796;2023-03-01T09:49:04;20.20;10.40
48515;DHT22;34309;47.260;2.796;2023-03-01T09:51:40;20.10;10.50
48515;DHT22;34309;47.260;2.796;2023-03-01T09:54:15;20.00;10.40
48515;DHT22;34309;47.260;2.796;2023-03-01T09:56:59;20.00;10.60
48515;DHT22;34309;47.260;2.796;2023-03-01T09:59:49;19.90;10.70
48515;DHT22;34309;47.260;2.796;2023-03-01T10:02:31;19.80;10.60
48515;DHT22;34309;47.260;2.796;2023-03-01T10:05:21;19.80;10.70
48515;DHT22;34309;47.260;2.796;2023-03-01T10:08:05;19.70;10.60
48515;DHT22;34309;47.260;2.796;2023-03-01T10:10:44;19.70;10.70
48515;DHT22;34309;47.260;2.796;2023-03-01T10:13:22;19.60;10.80
48515;DHT22;34309;47.260;2.796;2023-03-01T10:16:03;19.60;10.80
48515;DHT22;34309;47.260;2.796;2023-03-01T10:18:40;19.50;10.80
48515;DHT22;34309;47.260;2.796;2023-03-01T10:21:16;19.50;11.00
48515;DHT22;34309;47.260;2.796;2023-03-01T10:23:52;19.40;10.80
48515;DHT22;34309;47.260;2.796;2023-03-01T10:26:37;19.40;10.90
48515;DHT22;34309;47.260;2.796;2023-03-01T10:29:13;19.30;11.00
48515;DHT22;34309;47.260;2.796;2023-03-01T10:31:50;19.30;11.10
48515;DHT22;34309;47.260;2.796;2023-03-01T10:34:28;19.30;11.10
48515;DHT22;34309;47.260;2.796;2023-03-01T10:37:10;19.30;11.20
48515;DHT22;34309;47.260;2.796;2023-03-01T10:39:58;19.30;11.10
48515;DHT22;34309;47.260;2.796;2023-03-01T10:42:33;19.40;11.10
48515;DHT22;34309;47.260;2.796;2023-03-01T10:45:16;19.40;11.10
48515;DHT22;34309;47.260;2.796;2023-03-01T10:48:03;19.50;11.10
48515;DHT22;34309;47.260;2.796;2023-03-01T10:50:38;19.50;11.10
48515;DHT22;34309;47.260;2.796;2023-03-01T10:53:32;19.50;11.10
48515;DHT22;34309;47.260;2.796;2023-03-01T10:56:08;19.50;11.00
48515;DHT22;34309;47.260;2.796;2023-03-01T10:58:57;19.50;11.10
48515;DHT22;34309;47.260;2.796;2023-03-01T11:01:34;19.50;11.10
48515;DHT22;34309;47.260;2.796;2023-03-01T11:04:13;19.50;11.00
48515;DHT22;34309;47.260;2.796;2023-03-01T11:06:58;19.50;11.00
48515;DHT22;34309;47.260;2.796;2023-03-01T11:09:33;19.50;11.00
48515;DHT22;34309;47.260;2.796;2023-03-01T11:12:15;19.40;10.90
48515;DHT22;34309;47.260;2.796;2023-03-01T11:14:51;19.40;11.00
48515;DHT22;34309;47.260;2.796;2023-03-01T11:17:28;19.30;11.00
48515;DHT22;34309;47.260;2.796;2023-03-01T11:20:16;19.40;11.10
48515;DHT22;34309;47.260;2.796;2023-03-01T11:22:54;19.30;11.10
48515;DHT22;34309;47.260;2.796;2023-03-01T11:25:32;19.30;11.00
48515;DHT22;34309;47.260;2.796;2023-03-01T11:28:12;19.30;11.00
48515;DHT22;34309;47.260;2.796;2023-03-01T11:30:51;19.30;11.00
48515;DHT22;34309;47.260;2.796;2023-03-01T11:33:37;19.20;11.00
48515;DHT22;34309;47.260;2.796;2023-03-01T11:36:18;19.20;11.00
48515;DHT22;34309;47.260;2.796;2023-03-01T11:38:55;19.10;11.10
48515;DHT22;34309;47.260;2.796;2023-03-01T11:41:31;19.10;11.10
48515;DHT22;34309;47.260;2.796;2023-03-01T11:44:14;19.10;11.10
48515;DHT22;34309;47.260;2.796;2023-03-01T11:47:21;19.10;11.30
48515;DHT22;34309;47.260;2.796;2023-03-01T11:50:14;19.00;11.20
48515;DHT22;34309;47.260;2.796;2023-03-01T11:52:59;19.00;11.20
48515;DHT22;34309;47.260;2.796;2023-03-01T11:55:58;19.00;11.30
48515;DHT22;34309;47.260;2.796;2023-03-01T11:58:55;18.90;11.30
48515;DHT22;34309;47.260;2.796;2023-03-01T12:01:56;18.90;11.40
48515;DHT22;34309;47.260;2.796;2023-03-01T12:05:07;18.80;11.20
48515;DHT22;34309;47.260;2.796;2023-03-01T12:07:56;18.80;11.40
48515;DHT22;34309;47.260;2.796;2023-03-01T12:10:41;18.80;11.50
48515;DHT22;34309;47.260;2.796;2023-03-01T12:13:51;18.70;11.40
48515;DHT22;34309;47.260;2.796;2023-03-01T12:16:52;18.70;11.60
48515;DHT22;34309;47.260;2.796;2023-03-01T12:19:46;18.60;11.50
48515;DHT22;34309;47.260;2.796;2023-03-01T12:22:30;18.60;11.50
48515;DHT22;34309;47.260;2.796;2023-03-01T12:25:23;18.60;11.50
48515;DHT22;34309;47.260;2.796;2023-03-01T12:28:08;18.50;11.50
48515;DHT22;34309;47.260;2.796;2023-03-01T12:31:02;18.50;11.60
48515;DHT22;34309;47.260;2.796;2023-03-01T12:33:45;18.50;11.60
48515;DHT22;34309;47.260;2.796;2023-03-01T12:36:36;18.50;11.70
48515;DHT22;34309;47.260;2.796;2023-03-01T12:39:33;18.40;11.70
48515;DHT22;34309;47.260;2.796;2023-03-01T12:42:23;18.40;11.70
48515;DHT22;34309;47.260;2.796;2023-03-01T12:45:15;18.40;11.70
48515;DHT22;34309;47.260;2.796;2023-03-01T12:48:02;18.30;11.80
48515;DHT22;34309;47.260;2.796;2023-03-01T12:50:42;18.30;11.80
48515;DHT22;34309;47.260;2.796;2023-03-01T12:53:23;18.30;11.90
48515;DHT22;34309;47.260;2.796;2023-03-01T12:56:00;18.40;11.80
48515;DHT22;34309;47.260;2.796;2023-03-01T12:58:41;18.40;11.80
48515;DHT22;34309;47.260;2.796;2023-03-01T13:01:22;18.50;11.80
48515;DHT22;34309;47.260;2.796;2023-03-01T13:04:11;18.50;11.80
48515;DHT22;34309;47.260;2.796;2023-03-01T13:06:55;18.60;11.70
48515;DHT22;34309;47.260;2.796;2023-03-01T13:09:37;18.60;11.60
48515;DHT22;34309;47.260;2.796;2023-03-01T13:12:44;18.70;11.60
48515;DHT22;34309;47.260;2.796;2023-03-01T13:15:33;18.80;11.60
48515;DHT22;34309;47.260;2.796;2023-03-01T13:18:29;18.80;11.60
48515;DHT22;34309;47.260;2.796;2023-03-01T13:21:04;18.80;11.60
48515;DHT22;34309;47.260;2.796;2023-03-01T13:23:39;18.80;11.40
48515;DHT22;34309;47.260;2.796;2023-03-01T13:26:15;18.80;11.50
48515;DHT22;34309;47.260;2.796;2023-03-01T13:28:54;18.80;11.50
48515;DHT22;34309;47.260;2.796;2023-03-01T13:32:01;18.90;11.50
48515;DHT22;34309;47.260;2.796;2023-03-01T13:34:55;18.90;11.80
48515;DHT22;34309;47.260;2.796;2023-03-01T13:37:33;19.00;11.80
48515;DHT22;34309;47.260;2.796;2023-03-01T13:43:29;19.10;12.30
48515;DHT22;34309;47.260;2.796;2023-03-01T13:46:09;19.10;12.60
48515;DHT22;34309;47.260;2.796;2023-03-01T13:48:50;19.10;13.10
48515;DHT22;34309;47.260;2.796;2023-03-01T13:51:27;19.00;13.10
48515;DHT22;34309;47.260;2.796;2023-03-01T13:54:01;19.00;13.10
48515;DHT22;34309;47.260;2.796;2023-03-01T13:56:36;19.00;13.10
48515;DHT22;34309;47.260;2.796;2023-03-01T13:59:14;19.00;13.10
48515;DHT22;34309;47.260;2.796;2023-03-01T14:01:53;19.00;13.30
48515;DHT22;34309;47.260;2.796;2023-03-01T14:04:30;19.00;13.50
48515;DHT22;34309;47.260;2.796;2023-03-01T14:07:12;19.00;13.60
48515;DHT22;34309;47.260;2.796;2023-03-01T14:09:48;19.00;13.60
48515;DHT22;34309;47.260;2.796;2023-03-01T14:12:36;19.00;13.50
48515;DHT22;34309;47.260;2.796;2023-03-01T14:15:19;19.00;14.00
48515;DHT22;34309;47.260;2.796;2023-03-01T14:18:01;19.00;14.10
48515;DHT22;34309;47.260;2.796;2023-03-01T14:20:41;19.00;14.20
48515;DHT22;34309;47.260;2.796;2023-03-01T14:23:18;18.90;14.10
48515;DHT22;34309;47.260;2.796;2023-03-01T14:25:53;18.90;14.00
48515;DHT22;34309;47.260;2.796;2023-03-01T14:28:29;18.90;14.10
48515;DHT22;34309;47.260;2.796;2023-03-01T14:31:32;18.90;14.40
48515;DHT22;34309;47.260;2.796;2023-03-01T14:34:19;18.90;14.30
48515;DHT22;34309;47.260;2.796;2023-03-01T14:36:55;18.90;14.40
48515;DHT22;34309;47.260;2.796;2023-03-01T14:39:28;18.80;14.10
48515;DHT22;34309;47.260;2.796;2023-03-01T14:42:07;18.80;14.40
48515;DHT22;34309;47.260;2.796;2023-03-01T14:44:43;18.80;14.30
48515;DHT22;34309;47.260;2.796;2023-03-01T14:47:27;18.80;14.30
48515;DHT22;34309;47.260;2.796;2023-03-01T14:50:03;18.80;14.50
48515;DHT22;34309;47.260;2.796;2023-03-01T14:52:42;18.80;14.60
48515;DHT22;34309;47.260;2.796;2023-03-01T14:55:20;18.90;14.90
48515;DHT22;34309;47.260;2.796;2023-03-01T14:57:54;19.00;15.00
48515;DHT22;34309;47.260;2.796;2023-03-01T15:00:32;19.10;15.10
48515;DHT22;34309;47.260;2.796;2023-03-01T15:03:14;19.20;15.10
48515;DHT22;34309;47.260;2.796;2023-03-01T15:05:52;19.30;15.20
48515;DHT22;34309;47.260;2.796;2023-03-01T15:08:28;19.50;15.20
48515;DHT22;34309;47.260;2.796;2023-03-01T15:11:15;19.70;15.10
48515;DHT22;34309;47.260;2.796;2023-03-01T15:13:51;19.90;15.00
48515;DHT22;34309;47.260;2.796;2023-03-01T15:16:27;20.10;14.90
48515;DHT22;34309;47.260;2.796;2023-03-01T15:19:04;20.30;14.90
48515;DHT22;34309;47.260;2.796;2023-03-01T15:21:39;20.50;14.70
48515;DHT22;34309;47.260;2.796;2023-03-01T15:24:21;20.70;14.50
48515;DHT22;34309;47.260;2.796;2023-03-01T15:26:57;20.90;14.30
48515;DHT22;34309;47.260;2.796;2023-03-01T15:29:34;21.10;14.50
48515;DHT22;34309;47.260;2.796;2023-03-01T15:32:27;21.30;14.50
48515;DHT22;34309;47.260;2.796;2023-03-01T15:35:39;21.60;14.10
48515;DHT22;34309;47.260;2.796;2023-03-01T15:38:35;21.80;14.00
48515;DHT22;34309;47.260;2.796;2023-03-01T15:41:25;22.00;13.60
48515;DHT22;34309;47.260;2.796;2023-03-01T15:44:00;22.10;13.40
48515;DHT22;34309;47.260;2.796;2023-03-01T15:46:35;22.20;13.00
48515;DHT22;34309;47.260;2.796;2023-03-01T15:49:18;22.30;12.80
48515;DHT22;34309;47.260;2.796;2023-03-01T15:51:54;22.40;12.70
48515;DHT22;34309;47.260;2.796;2023-03-01T15:54:28;22.30;12.60
48515;DHT22;34309;47.260;2.796;2023-03-01T15:57:03;22.30;12.60
48515;DHT22;34309;47.260;2.796;2023-03-01T15:59:37;22.20;12.60
48515;DHT22;34309;47.260;2.796;2023-03-01T16:02:11;22.20;12.60
48515;DHT22;34309;47.260;2.796;2023-03-01T16:04:45;22.10;12.50
48515;DHT22;34309;47.260;2.796;2023-03-01T16:07:19;22.00;12.50
48515;DHT22;34309;47.260;2.796;2023-03-01T16:09:52;22.00;12.50
48515;DHT22;34309;47.260;2.796;2023-03-01T16:12:28;21.90;12.50
48515;DHT22;34309;47.260;2.796;2023-03-01T16:15:01;21.80;12.50
48515;DHT22;34309;47.260;2.796;2023-03-01T16:17:35;21.70;12.60
48515;DHT22;34309;47.260;2.796;2023-03-01T16:20:10;21.60;12.50
48515;DHT22;34309;47.260;2.796;2023-03-01T16:22:44;21.60;12.70
48515;DHT22;34309;47.260;2.796;2023-03-01T16:25:19;21.50;12.60
48515;DHT22;34309;47.260;2.796;2023-03-01T16:27:54;21.40;12.60
48515;DHT22;34309;47.260;2.796;2023-03-01T16:30:30;21.40;12.70
48515;DHT22;34309;47.260;2.796;2023-03-01T16:33:05;21.40;12.60
48515;DHT22;34309;47.260;2.796;2023-03-01T16:35:40;21.30;12.70
48515;DHT22;34309;47.260;2.796;2023-03-01T16:38:10;21.30;12.70
48515;DHT22;34309;47.260;2.796;2023-03-01T16:40:47;21.20;12.70
48515;DHT22;34309;47.260;2.796;2023-03-01T16:43:23;21.20;12.80
48515;DHT22;34309;47.260;2.796;2023-03-01T16:45:57;21.10;12.70